Time;durP1;ratioP1;P1;durP2;ratioP2;P2;SDS_P1;SDS_P2;PMS_P1;PMS_P2;Temp;Humidity;BMP_temperature;BMP_pressure;BME280_temperature;BME280_humidity;BME280_pressure;Samples;Min_cycle;Max_cycle;Signal;HPM_P1;HPM_P2
2021/04/18 00:01:30;;;;;;;11.27;7.15;;;3.80;99.90;;;;;;5108551;28;20071;-62
2021/04/18 00:03:56;;;;;;;14.23;7.65;;;3.80;99.90;;;;;;5108698;28;20055;-62
2021/04/18 00:06:22;;;;;;;12.93;7.63;;;3.80;99.90;;;;;;5108501;28;20127;-62
2021/04/18 00:08:48;;;;;;;11.80;7.15;;;3.70;99.90;;;;;;5108121;28;20075;-62
2021/04/18 00:11:16;;;;;;;12.23;7.30;;;3.80;99.90;;;;;;5108317;28;20048;-62
2021/04/18 00:13:43;;;;;;;11.57;6.97;;;3.80;99.90;;;;;;5099128;28;20047;-62
2021/04/18 00:16:08;;;;;;;13.88;7.15;;;3.80;99.90;;;;;;5106612;28;20055;-61
2021/04/18 00:18:34;;;;;;;12.23;6.78;;;3.70;99.90;;;;;;5108391;28;20048;-61
2021/04/18 00:21:00;;;;;;;14.77;7.75;;;3.70;99.90;;;;;;5108202;28;20055;-62
2021/04/18 00:23:26;;;;;;;16.90;9.35;;;3.70;99.90;;;;;;5109164;28;20048;-61
2021/04/18 00:25:52;;;;;;;12.60;8.05;;;3.80;99.90;;;;;;5095305;28;20080;-61
2021/04/18 00:28:19;;;;;;;15.55;8.27;;;3.70;99.90;;;;;;5107915;28;20093;-61
2021/04/18 00:30:45;;;;;;;13.18;8.52;;;3.70;99.90;;;;;;5107836;28;20496;-62
2021/04/18 00:33:11;;;;;;;15.60;7.85;;;3.70;99.90;;;;;;5107691;28;20051;-61
2021/04/18 00:35:37;;;;;;;12.00;7.82;;;3.60;99.90;;;;;;5108100;28;20051;-62
2021/04/18 00:38:02;;;;;;;13.90;8.65;;;3.60;99.90;;;;;;5109041;28;20103;-61
2021/04/18 00:40:29;;;;;;;15.10;8.88;;;3.60;99.90;;;;;;5108557;28;20115;-62
2021/04/18 00:42:55;;;;;;;15.10;8.88;;;3.50;99.90;;;;;;5108324;28;20058;-61
2021/04/18 00:45:22;;;;;;;14.10;8.63;;;3.50;99.90;;;;;;5107185;28;20047;-62
2021/04/18 00:47:53;;;;;;;13.43;8.15;;;3.50;99.90;;;;;;5108045;28;20055;-62
2021/04/18 00:50:26;;;;;;;14.60;8.32;;;3.60;99.90;;;;;;5108372;28;20238;-61
2021/04/18 00:52:53;;;;;;;14.25;8.68;;;3.70;99.90;;;;;;5108240;28;20150;-62
2021/04/18 00:55:23;;;;;;;16.80;10.10;;;3.70;99.90;;;;;;5105493;28;20411;-62
2021/04/18 00:57:50;;;;;;;16.05;9.13;;;3.60;99.90;;;;;;5107621;28;20040;-62
2021/04/18 01:00:16;;;;;;;12.98;8.77;;;3.50;99.90;;;;;;5107040;28;20065;-62
2021/04/18 01:02:42;;;;;;;15.18;9.50;;;3.50;99.90;;;;;;5107494;28;20048;-61
2021/04/18 01:05:09;;;;;;;11.48;7.65;;;3.40;99.90;;;;;;5108241;28;20040;-61
2021/04/18 01:07:35;;;;;;;12.35;7.82;;;3.40;99.90;;;;;;5101098;28;20074;-61
2021/04/18 01:10:03;;;;;;;10.57;7.90;;;3.40;99.90;;;;;;5107971;28;20035;-61
2021/04/18 01:12:29;;;;;;;16.52;9.23;;;3.40;99.90;;;;;;5108472;28;20051;-61
2021/04/18 01:14:56;;;;;;;12.80;8.82;;;3.40;99.90;;;;;;5107299;28;20119;-62
2021/04/18 01:17:21;;;;;;;15.13;9.07;;;3.50;99.90;;;;;;5106843;28;20066;-61
2021/04/18 01:19:47;;;;;;;12.10;7.90;;;3.50;99.90;;;;;;5107227;28;20040;-61
2021/04/18 01:22:16;;;;;;;10.77;8.27;;;3.50;99.90;;;;;;5108193;28;20059;-61
2021/04/18 01:24:42;;;;;;;13.60;8.63;;;3.50;99.90;;;;;;5105299;28;20047;-62
2021/04/18 01:27:10;;;;;;;13.45;8.90;;;3.60;99.90;;;;;;5108205;28;20085;-62
2021/04/18 01:29:37;;;;;;;17.42;9.48;;;3.60;99.90;;;;;;5106768;28;20040;-61
2021/04/18 01:32:03;;;;;;;17.50;8.93;;;3.60;99.90;;;;;;5106468;28;20059;-61
2021/04/18 01:34:30;;;;;;;14.38;8.25;;;3.40;99.90;;;;;;5106588;28;20134;-61
2021/04/18 01:36:56;;;;;;;16.23;9.65;;;3.30;99.90;;;;;;5107015;28;20204;-62
2021/04/18 01:39:23;;;;;;;12.73;8.57;;;3.00;99.90;;;;;;5106604;28;20059;-62
2021/04/18 01:41:49;;;;;;;12.75;8.35;;;2.90;99.90;;;;;;5106545;28;20043;-62
2021/04/18 01:44:15;;;;;;;14.70;8.48;;;2.90;99.90;;;;;;5106651;28;20051;-62
2021/04/18 01:46:45;;;;;;;17.42;8.80;;;2.90;99.90;;;;;;5098599;28;20103;-62
2021/04/18 01:49:12;;;;;;;13.48;8.45;;;3.00;99.90;;;;;;5106740;28;20475;-62
2021/04/18 01:51:38;;;;;;;13.23;7.95;;;3.00;99.90;;;;;;5106041;28;20036;-62
2021/04/18 01:54:05;;;;;;;12.40;8.20;;;3.00;99.90;;;;;;5106866;28;20063;-61
2021/04/18 01:56:32;;;;;;;12.68;7.63;;;3.00;99.90;;;;;;5105909;28;20056;-61
2021/04/18 01:58:57;;;;;;;15.68;9.88;;;2.90;99.90;;;;;;5106477;28;20059;-61
2021/04/18 02:01:24;;;;;;;23.33;10.48;;;2.90;99.90;;;;;;5105769;28;20052;-61
2021/04/18 02:03:50;;;;;;;19.38;10.07;;;2.80;99.90;;;;;;5106401;28;20060;-61
2021/04/18 02:06:16;;;;;;;28.33;10.32;;;2.90;99.90;;;;;;5100198;28;20226;-61
2021/04/18 02:08:42;;;;;;;20.45;11.00;;;2.90;99.90;;;;;;5106184;28;20070;-61
2021/04/18 02:11:07;;;;;;;23.42;9.50;;;3.10;99.90;;;;;;5106757;28;20068;-61
2021/04/18 02:13:33;;;;;;;26.02;10.68;;;3.10;99.90;;;;;;5105927;28;20108;-61
2021/04/18 02:16:00;;;;;;;17.33;9.90;;;2.90;99.90;;;;;;5105856;28;20180;-61
2021/04/18 02:18:26;;;;;;;18.17;9.65;;;2.80;99.90;;;;;;5106365;28;20068;-61
2021/04/18 02:20:52;;;;;;;29.05;10.63;;;2.70;99.90;;;;;;5105631;28;20039;-61
2021/04/18 02:23:18;;;;;;;15.40;8.90;;;2.80;99.90;;;;;;5087568;28;20051;-61
2021/04/18 02:25:44;;;;;;;16.33;8.90;;;2.70;99.90;;;;;;5105076;28;20048;-61
2021/04/18 02:28:10;;;;;;;17.95;8.82;;;2.60;99.90;;;;;;5105913;28;20069;-61
2021/04/18 02:30:35;;;;;;;15.98;8.38;;;2.70;99.90;;;;;;5106272;28;20545;-61
2021/04/18 02:33:01;;;;;;;14.63;8.18;;;2.60;99.90;;;;;;5105836;28;20062;-62
2021/04/18 02:35:27;;;;;;;20.70;9.52;;;2.60;99.90;;;;;;5106158;28;20066;-62
2021/04/18 02:37:54;;;;;;;20.65;9.48;;;2.60;99.90;;;;;;5105650;28;20044;-62
2021/04/18 02:40:20;;;;;;;20.67;10.35;;;2.60;99.90;;;;;;5105638;28;20131;-62
2021/04/18 02:42:46;;;;;;;20.38;10.85;;;2.60;99.90;;;;;;5105308;28;20416;-62
2021/04/18 02:45:13;;;;;;;28.38;10.13;;;2.60;99.90;;;;;;5106827;28;20055;-62
2021/04/18 02:47:39;;;;;;;14.70;8.90;;;2.60;99.90;;;;;;5105994;28;20040;-62
2021/04/18 02:50:07;;;;;;;15.40;8.93;;;2.60;99.90;;;;;;5105355;28;20067;-62
2021/04/18 02:52:33;;;;;;;16.83;9.15;;;2.70;99.90;;;;;;5105218;28;20044;-61
2021/04/18 02:55:00;;;;;;;27.80;10.55;;;2.70;99.90;;;;;;5102535;28;20382;-61
2021/04/18 02:57:26;;;;;;;19.88;12.38;;;2.70;99.90;;;;;;5104422;28;20054;-61
2021/04/18 02:59:52;;;;;;;31.52;13.98;;;2.60;99.90;;;;;;5088299;28;20044;-61
2021/04/18 03:02:18;;;;;;;53.38;10.95;;;2.60;99.90;;;;;;5104861;28;20050;-61
2021/04/18 03:04:45;;;;;;;34.95;9.98;;;2.60;99.90;;;;;;5105215;28;20077;-62
2021/04/18 03:07:11;;;;;;;14.85;9.90;;;2.70;99.90;;;;;;5093757;28;20051;-62
2021/04/18 03:09:37;;;;;;;46.45;10.35;;;2.70;99.90;;;;;;5105903;28;20043;-61
2021/04/18 03:12:03;;;;;;;73.13;15.13;;;2.90;99.90;;;;;;5104418;28;20051;-62
2021/04/18 03:14:29;;;;;;;152.93;15.95;;;3.00;99.90;;;;;;5105175;28;20048;-62
2021/04/18 03:16:55;;;;;;;157.45;15.70;;;3.00;99.90;;;;;;5104650;28;20048;-62
2021/04/18 03:19:20;;;;;;;222.30;17.75;;;3.00;99.90;;;;;;5104942;28;20105;-62
2021/04/18 03:21:46;;;;;;;228.95;20.90;;;3.00;99.90;;;;;;5104560;28;20105;-62
2021/04/18 03:24:12;;;;;;;27.58;11.60;;;2.90;99.90;;;;;;5102203;28;20040;-62
2021/04/18 03:26:38;;;;;;;15.82;11.82;;;2.90;99.90;;;;;;5099870;28;20048;-62
2021/04/18 03:29:04;;;;;;;65.75;13.38;;;3.10;99.90;;;;;;5104433;28;20098;-62
2021/04/18 03:31:30;;;;;;;221.45;17.10;;;3.20;99.90;;;;;;5104080;28;20048;-62
2021/04/18 03:33:56;;;;;;;172.77;14.70;;;3.20;99.90;;;;;;5104856;28;20051;-62
2021/04/18 03:36:21;;;;;;;113.25;12.18;;;3.10;99.90;;;;;;5104663;28;20052;-62
2021/04/18 03:38:47;;;;;;;77.93;10.18;;;3.10;99.90;;;;;;5104632;28;20044;-61
2021/04/18 03:41:13;;;;;;;226.82;15.35;;;3.00;99.90;;;;;;5105310;28;20514;-61
2021/04/18 03:43:39;;;;;;;156.07;12.38;;;3.00;99.90;;;;;;5105457;28;20039;-62
2021/04/18 03:46:05;;;;;;;53.42;10.23;;;2.90;99.90;;;;;;5099004;28;20056;-61
2021/04/18 03:48:31;;;;;;;154.48;14.07;;;2.90;99.90;;;;;;5103682;28;20052;-62
2021/04/18 03:50:56;;;;;;;128.48;13.05;;;2.90;99.90;;;;;;5104541;28;20120;-62
2021/04/18 03:53:22;;;;;;;126.05;12.07;;;2.90;99.90;;;;;;5104199;28;20073;-62
2021/04/18 03:55:48;;;;;;;21.45;10.52;;;2.80;99.90;;;;;;5104607;28;20068;-62
2021/04/18 03:58:14;;;;;;;245.95;17.15;;;2.80;99.90;;;;;;5104176;28;20492;-62
2021/04/18 04:00:40;;;;;;;108.00;13.05;;;2.80;99.90;;;;;;5104551;28;20047;-61
2021/04/18 04:03:06;;;;;;;55.00;11.75;;;2.80;99.90;;;;;;5105287;28;20043;-62
2021/04/18 04:05:32;;;;;;;53.88;11.27;;;2.80;99.90;;;;;;5104205;28;20040;-62
2021/04/18 04:07:59;;;;;;;123.78;14.13;;;2.80;99.90;;;;;;5102888;28;20101;-61
2021/04/18 04:10:25;;;;;;;175.75;15.40;;;2.80;99.90;;;;;;5104444;28;20050;-62
2021/04/18 04:12:51;;;;;;;224.88;17.38;;;2.80;99.90;;;;;;5103855;28;20482;-61
2021/04/18 04:15:17;;;;;;;92.10;12.50;;;2.70;99.90;;;;;;5104240;28;20040;-63
2021/04/18 04:17:43;;;;;;;93.68;13.00;;;2.60;99.90;;;;;;5104785;28;20040;-62
2021/04/18 04:20:09;;;;;;;33.90;12.20;;;2.60;99.90;;;;;;5086582;28;20062;-61
2021/04/18 04:22:35;;;;;;;37.53;11.95;;;2.60;99.90;;;;;;5104491;28;20066;-61
2021/04/18 04:25:01;;;;;;;21.08;10.30;;;2.70;99.90;;;;;;5093925;28;20568;-61
2021/04/18 04:27:27;;;;;;;42.10;11.05;;;2.90;99.90;;;;;;5099774;28;20081;-62
2021/04/18 04:29:53;;;;;;;13.35;10.35;;;2.90;99.90;;;;;;5104716;28;20051;-62
2021/04/18 04:32:19;;;;;;;14.15;9.48;;;2.90;99.90;;;;;;5103328;28;20060;-62
2021/04/18 04:34:44;;;;;;;11.07;9.10;;;3.10;99.90;;;;;;5084496;28;20102;-62
2021/04/18 04:37:10;;;;;;;30.40;10.07;;;3.20;99.90;;;;;;5104430;28;20484;-61
2021/04/18 04:39:36;;;;;;;17.92;10.05;;;3.40;99.90;;;;;;5104122;28;20044;-62
2021/04/18 04:42:03;;;;;;;17.25;8.80;;;3.40;99.90;;;;;;5104010;28;20058;-62
2021/04/18 04:44:29;;;;;;;14.02;9.70;;;3.20;99.90;;;;;;5104050;28;20040;-62
2021/04/18 04:46:56;;;;;;;11.95;9.90;;;3.30;99.90;;;;;;5103479;28;20082;-62
2021/04/18 04:49:23;;;;;;;13.55;9.43;;;3.40;99.90;;;;;;5107449;28;20111;-61
2021/04/18 04:51:49;;;;;;;15.63;9.13;;;3.30;99.90;;;;;;5107463;28;20044;-61
2021/04/18 04:54:15;;;;;;;16.25;9.13;;;3.30;99.90;;;;;;5107394;28;20051;-61
2021/04/18 04:56:41;;;;;;;13.93;8.05;;;3.20;99.90;;;;;;5097641;28;20209;-61
2021/04/18 04:59:07;;;;;;;12.82;9.27;;;3.20;99.90;;;;;;5108600;28;20051;-61
2021/04/18 05:01:33;;;;;;;19.45;9.70;;;3.20;99.90;;;;;;5108492;28;20135;-61
2021/04/18 05:03:59;;;;;;;26.52;10.25;;;3.20;99.90;;;;;;5107791;28;20048;-61
2021/04/18 05:06:24;;;;;;;13.68;11.00;;;3.20;99.90;;;;;;5094476;28;20048;-62
2021/04/18 05:08:50;;;;;;;12.77;10.60;;;3.10;99.90;;;;;;5107719;28;20054;-61
2021/04/18 05:11:16;;;;;;;12.40;11.10;;;3.00;99.90;;;;;;5107272;28;20049;-61
2021/04/18 05:13:42;;;;;;;11.95;10.65;;;3.00;99.90;;;;;;5107413;28;20048;-62
2021/04/18 05:16:08;;;;;;;12.38;11.07;;;3.00;99.90;;;;;;5106944;28;20079;-62
2021/04/18 05:18:34;;;;;;;14.65;10.95;;;3.10;99.90;;;;;;5107742;28;20051;-62
2021/04/18 05:21:00;;;;;;;14.02;11.77;;;3.20;99.90;;;;;;5107932;28;20504;-62
2021/04/18 05:23:27;;;;;;;15.75;12.13;;;3.30;99.90;;;;;;5107304;28;20058;-62
2021/04/18 05:25:54;;;;;;;16.35;12.80;;;3.30;99.90;;;;;;5087822;28;20101;-61
2021/04/18 05:28:20;;;;;;;15.57;13.90;;;3.40;99.90;;;;;;5107109;28;20510;-61
2021/04/18 05:30:46;;;;;;;15.65;12.20;;;3.50;99.90;;;;;;5106882;28;20040;-61
2021/04/18 05:33:12;;;;;;;15.60;12.50;;;3.60;99.90;;;;;;5106237;28;20056;-61
2021/04/18 05:35:38;;;;;;;13.90;12.40;;;3.70;99.90;;;;;;5106722;28;20043;-61
2021/04/18 05:38:04;;;;;;;16.33;12.65;;;3.80;99.90;;;;;;5106764;28;20456;-61
2021/04/18 05:40:29;;;;;;;17.67;12.63;;;3.90;99.90;;;;;;5106833;28;20044;-61
2021/04/18 05:42:55;;;;;;;14.77;11.95;;;4.00;99.90;;;;;;5107849;28;20052;-61
2021/04/18 05:45:21;;;;;;;14.10;11.60;;;4.10;99.90;;;;;;5107126;28;20040;-61
2021/04/18 05:47:47;;;;;;;13.93;11.45;;;4.20;99.90;;;;;;5106205;28;20040;-61
2021/04/18 05:50:13;;;;;;;13.20;10.93;;;4.30;99.90;;;;;;5106317;28;20054;-61
2021/04/18 05:52:39;;;;;;;12.68;10.10;;;4.40;99.90;;;;;;5107125;28;20060;-61
2021/04/18 05:55:09;;;;;;;11.80;9.85;;;4.40;99.90;;;;;;5104952;28;20472;-62
2021/04/18 05:57:35;;;;;;;11.90;10.60;;;4.50;99.90;;;;;;5084478;28;20045;-62
2021/04/18 06:00:05;;;;;;;13.50;11.50;;;4.60;99.90;;;;;;5103882;28;20087;-61
2021/04/18 06:02:31;;;;;;;;;;;4.60;99.90;;;;;;5106612;28;20047;-61
2021/04/18 06:04:57;;;;;;;13.60;11.85;;;4.70;99.90;;;;;;5106784;28;19920;-61
2021/04/18 06:07:23;;;;;;;17.17;12.90;;;4.70;99.90;;;;;;5105166;28;20044;-61
2021/04/18 06:09:48;;;;;;;17.25;14.32;;;4.80;99.90;;;;;;5106185;28;20044;-61
2021/04/18 06:12:14;;;;;;;16.70;13.48;;;4.90;99.90;;;;;;5107059;28;20052;-62
2021/04/18 06:14:40;;;;;;;18.52;14.18;;;4.90;99.90;;;;;;5106694;28;20130;-62
2021/04/18 06:17:06;;;;;;;21.15;15.88;;;5.00;99.90;;;;;;5106520;28;20044;-61
2021/04/18 06:19:32;;;;;;;18.70;14.63;;;5.10;99.90;;;;;;5107103;28;20047;-61
2021/04/18 06:21:58;;;;;;;20.05;15.10;;;5.10;99.90;;;;;;5105735;28;20044;-61
2021/04/18 06:24:25;;;;;;;17.42;14.00;;;5.20;99.90;;;;;;5100952;28;20048;-61
2021/04/18 06:26:51;;;;;;;18.73;13.95;;;5.30;99.90;;;;;;5100087;28;20048;-61
2021/04/18 06:29:17;;;;;;;17.17;14.10;;;5.30;99.90;;;;;;5105798;28;20047;-62
2021/04/18 06:31:43;;;;;;;18.70;14.43;;;5.30;99.90;;;;;;5105080;28;20420;-62
2021/04/18 06:34:10;;;;;;;19.27;14.52;;;5.40;99.90;;;;;;5106174;28;20052;-62
2021/04/18 06:36:36;;;;;;;19.73;14.05;;;5.50;99.90;;;;;;5105957;28;20046;-62
2021/04/18 06:39:02;;;;;;;20.15;14.75;;;5.60;99.90;;;;;;5091854;28;20063;-61
2021/04/18 06:41:34;;;;;;;18.35;13.63;;;5.60;99.90;;;;;;5105577;28;20075;-62
2021/04/18 06:44:01;;;;;;;20.25;14.10;;;5.60;99.90;;;;;;5092370;28;20131;-61
2021/04/18 06:46:27;;;;;;;19.15;13.32;;;5.70;99.90;;;;;;5096608;28;20527;-62
2021/04/18 06:48:53;;;;;;;18.40;14.23;;;5.80;99.90;;;;;;5105569;28;20044;-62
2021/04/18 06:51:19;;;;;;;21.10;15.40;;;5.80;99.90;;;;;;5105476;28;20055;-62
2021/04/18 06:53:48;;;;;;;20.17;13.13;;;5.90;99.90;;;;;;5105011;28;20047;-61
2021/04/18 06:56:15;;;;;;;22.45;14.02;;;5.90;99.90;;;;;;5106028;28;20048;-62
2021/04/18 06:58:41;;;;;;;17.25;13.85;;;6.00;99.90;;;;;;5091599;28;20099;-62
2021/04/18 07:01:07;;;;;;;19.38;14.30;;;6.10;99.90;;;;;;5105195;28;20044;-62
2021/04/18 07:03:33;;;;;;;20.52;14.35;;;6.10;99.90;;;;;;5104559;28;20044;-62
2021/04/18 07:05:59;;;;;;;19.33;14.55;;;6.10;99.90;;;;;;5099871;28;20044;-62
2021/04/18 07:08:32;;;;;;;18.65;13.55;;;6.20;99.90;;;;;;5104047;28;20052;-61
2021/04/18 07:11:24;;;;;;;22.73;13.75;;;6.30;99.90;;;;;;5105350;28;20043;-62
2021/04/18 07:13:50;;;;;;;20.10;14.98;;;6.40;99.90;;;;;;5092702;28;20048;-62
2021/04/18 07:16:26;;;;;;;19.45;14.23;;;6.50;99.90;;;;;;5104204;28;20106;-62
2021/04/18 07:18:54;;;;;;;18.85;13.73;;;6.50;99.90;;;;;;5104925;28;20035;-63
2021/04/18 07:21:21;;;;;;;19.73;14.05;;;6.60;99.90;;;;;;5104987;28;20044;-62
2021/04/18 07:23:47;;;;;;;17.13;13.70;;;6.70;99.90;;;;;;5102470;28;20051;-61
2021/04/18 07:26:26;;;;;;;19.70;12.77;;;6.80;99.90;;;;;;5104764;28;20044;-61
2021/04/18 07:29:10;;;;;;;18.02;12.70;;;6.80;99.90;;;;;;5105219;28;20111;-62
2021/04/18 07:31:36;;;;;;;18.33;13.20;;;6.90;99.90;;;;;;5105119;28;20135;-62
2021/04/18 07:34:05;;;;;;;18.27;11.60;;;7.10;99.90;;;;;;5104032;28;20071;-66
2021/04/18 07:36:32;;;;;;;16.02;11.18;;;7.20;99.90;;;;;;5082842;28;20051;-65
2021/04/18 07:38:58;;;;;;;13.75;10.15;;;7.40;99.90;;;;;;5103193;28;20048;-66
2021/04/18 07:41:25;;;;;;;14.02;10.35;;;7.40;99.90;;;;;;5104745;28;20249;-66
2021/04/18 07:43:51;;;;;;;14.10;10.23;;;7.50;99.90;;;;;;5104854;28;20108;-68
2021/04/18 07:46:20;;;;;;;18.70;10.85;;;7.50;99.90;;;;;;5102574;28;20055;-66
2021/04/18 07:48:47;;;;;;;15.60;12.88;;;7.60;99.90;;;;;;5103634;28;20123;-66
2021/04/18 07:51:13;;;;;;;13.45;10.80;;;7.70;99.90;;;;;;5104339;28;20078;-66
2021/04/18 07:53:40;;;;;;;15.52;10.73;;;7.80;99.90;;;;;;5104908;28;20048;-66
2021/04/18 07:56:11;;;;;;;14.93;9.98;;;7.90;99.90;;;;;;5062550;28;20067;-66
2021/04/18 07:58:38;;;;;;;17.55;10.35;;;8.00;99.90;;;;;;5085580;28;20119;-66
2021/04/18 08:01:06;;;;;;;13.32;10.27;;;8.10;99.90;;;;;;5056665;28;20091;-66
2021/04/18 08:03:33;;;;;;;15.38;10.57;;;8.30;99.90;;;;;;5065844;28;20146;-68
2021/04/18 08:05:59;;;;;;;15.52;11.07;;;8.40;99.90;;;;;;5075389;28;20047;-68
2021/04/18 08:08:50;;;;;;;13.57;10.15;;;8.50;99.90;;;;;;5068558;28;20055;-68
2021/04/18 08:11:20;;;;;;;12.52;9.30;;;8.60;99.90;;;;;;5077380;28;20052;-67
2021/04/18 08:13:51;;;;;;;14.97;10.13;;;8.70;99.90;;;;;;5065755;28;20053;-66
2021/04/18 08:16:31;;;;;;;14.35;9.73;;;8.70;99.90;;;;;;5076597;28;20051;-66
2021/04/18 08:19:17;;;;;;;12.68;8.98;;;8.70;99.90;;;;;;5065150;28;20152;-66
2021/04/18 08:21:43;;;;;;;12.85;9.27;;;8.80;99.90;;;;;;5079883;28;20049;-67
2021/04/18 08:24:18;;;;;;;12.07;8.95;;;8.80;99.90;;;;;;5067709;28;20052;-68
2021/04/18 08:27:05;;;;;;;12.68;8.98;;;8.80;99.90;;;;;;5078432;28;20040;-66
2021/04/18 08:29:31;;;;;;;12.60;9.40;;;8.90;99.90;;;;;;5058732;28;20049;-66
2021/04/18 08:32:02;;;;;;;15.02;10.20;;;8.90;99.90;;;;;;5079550;28;20132;-66
2021/04/18 08:34:34;;;;;;;13.13;9.30;;;8.90;99.90;;;;;;5070943;28;20407;-66
2021/04/18 08:37:03;;;;;;;17.02;9.93;;;9.10;99.90;;;;;;5061555;28;20182;-66
2021/04/18 08:39:40;;;;;;;12.02;8.70;;;9.20;99.90;;;;;;5069120;28;20066;-64
2021/04/18 08:42:08;;;;;;;11.73;8.60;;;9.30;99.90;;;;;;5093235;28;20044;-64
2021/04/18 08:44:37;;;;;;;13.98;8.57;;;9.50;99.90;;;;;;5099763;28;20115;-64
2021/04/18 08:47:12;;;;;;;10.68;8.13;;;9.60;99.90;;;;;;5097813;28;20063;-64
2021/04/18 08:49:45;;;;;;;13.05;8.70;;;9.70;99.90;;;;;;5099891;28;20077;-63
2021/04/18 08:52:41;;;;;;;14.32;8.90;;;10.00;99.90;;;;;;5092050;28;20047;-64
2021/04/18 08:55:12;;;;;;;13.45;8.25;;;10.10;99.60;;;;;;5076410;28;20044;-64
2021/04/18 08:57:39;;;;;;;13.40;8.80;;;10.20;98.50;;;;;;5092658;28;20068;-63
2021/04/18 09:00:15;;;;;;;10.25;8.15;;;10.30;98.80;;;;;;5102338;28;20060;-64
2021/04/18 09:02:42;;;;;;;11.60;8.23;;;10.40;98.70;;;;;;5093222;28;20052;-63
2021/04/18 09:05:13;;;;;;;13.88;8.70;;;10.40;98.50;;;;;;5095940;28;20078;-64
2021/04/18 09:07:45;;;;;;;10.77;7.88;;;10.50;98.10;;;;;;5092134;28;20095;-63
2021/04/18 09:10:13;;;;;;;12.35;8.13;;;10.70;96.90;;;;;;5101286;28;20040;-63
2021/04/18 09:12:38;;;;;;;11.43;7.65;;;10.70;97.30;;;;;;5090327;28;20040;-64
2021/04/18 09:15:08;;;;;;;11.88;7.63;;;10.80;97.30;;;;;;5100929;28;20437;-65
2021/04/18 09:17:35;;;;;;;11.82;7.32;;;11.00;95.80;;;;;;5092957;28;20112;-64
2021/04/18 09:20:08;;;;;;;10.57;6.38;;;11.00;96.30;;;;;;5097900;28;20051;-65
2021/04/18 09:22:39;;;;;;;9.65;6.38;;;11.30;94.60;;;;;;5088695;28;20066;-63
2021/04/18 09:25:13;;;;;;;16.65;7.75;;;11.40;94.10;;;;;;5099288;28;20040;-64
2021/04/18 09:27:41;;;;;;;8.48;7.03;;;11.50;94.30;;;;;;5092632;28;20066;-64
2021/04/18 09:30:10;;;;;;;9.40;6.88;;;11.60;93.90;;;;;;5099435;28;20044;-62
2021/04/18 09:32:55;;;;;;;9.70;6.68;;;11.50;94.00;;;;;;5089307;28;20048;-62
2021/04/18 09:35:26;;;;;;;8.00;6.15;;;11.70;94.40;;;;;;5081631;28;20138;-62
2021/04/18 09:38:02;;;;;;;11.50;6.38;;;11.80;93.30;;;;;;5089672;28;20055;-62
2021/04/18 09:40:31;;;;;;;11.90;6.28;;;11.90;93.80;;;;;;5100954;28;20636;-62
2021/04/18 09:42:58;;;;;;;9.40;5.80;;;11.90;93.80;;;;;;5090187;28;20067;-62
2021/04/18 09:45:30;;;;;;;6.32;5.18;;;12.00;92.90;;;;;;5099750;28;20036;-62
2021/04/18 09:47:56;;;;;;;7.90;5.60;;;12.10;92.00;;;;;;5090708;28;20066;-62
2021/04/18 09:50:30;;;;;;;6.97;5.20;;;12.20;91.20;;;;;;5101723;28;20441;-62
2021/04/18 09:53:15;;;;;;;8.73;6.45;;;12.40;90.10;;;;;;5085015;28;20064;-62
2021/04/18 09:55:53;;;;;;;6.72;4.95;;;12.40;91.00;;;;;;5092271;28;20752;-62
2021/04/18 09:58:36;;;;;;;7.95;5.38;;;12.40;90.70;;;;;;5081960;28;20056;-64
2021/04/18 10:01:04;;;;;;;8.43;5.82;;;12.30;90.40;;;;;;5092128;28;20040;-64
2021/04/18 10:03:42;;;;;;;8.60;6.07;;;12.40;90.40;;;;;;5085607;28;20048;-64
2021/04/18 10:06:08;;;;;;;8.50;5.82;;;12.40;91.20;;;;;;5093852;28;20066;-64
2021/04/18 10:08:36;;;;;;;8.35;5.95;;;12.40;90.80;;;;;;5088245;28;20643;-64
2021/04/18 10:11:08;;;;;;;7.97;5.65;;;12.50;89.90;;;;;;5098474;28;20527;-64
2021/04/18 10:13:42;;;;;;;8.68;6.00;;;12.50;90.00;;;;;;5083363;28;20610;-65
2021/04/18 10:16:10;;;;;;;8.13;5.82;;;12.50;88.90;;;;;;5094161;28;20051;-63
2021/04/18 10:18:38;;;;;;;7.82;5.60;;;12.50;89.80;;;;;;5077266;28;20048;-64
2021/04/18 10:21:34;;;;;;;7.18;5.18;;;12.50;89.10;;;;;;5093576;28;20078;-64
2021/04/18 10:24:00;;;;;;;6.47;5.45;;;12.60;88.90;;;;;;5072084;28;20082;-64
2021/04/18 10:26:27;;;;;;;10.05;6.28;;;12.60;89.10;;;;;;5096577;28;20052;-65
2021/04/18 10:28:54;;;;;;;10.82;6.38;;;12.60;89.60;;;;;;5079300;28;20048;-64
2021/04/18 10:31:23;;;;;;;9.52;6.22;;;12.70;89.20;;;;;;5097685;28;20040;-64
2021/04/18 10:33:49;;;;;;;8.13;4.90;;;12.90;86.20;;;;;;5089257;28;20082;-64
2021/04/18 10:36:16;;;;;;;7.85;5.65;;;13.00;87.20;;;;;;5086531;28;20044;-64
2021/04/18 10:38:43;;;;;;;9.25;6.05;;;13.10;86.20;;;;;;5086937;28;20056;-64
2021/04/18 10:41:09;;;;;;;8.60;5.97;;;13.30;88.00;;;;;;5099320;28;20032;-63
2021/04/18 10:43:36;;;;;;;9.75;5.90;;;13.40;89.10;;;;;;5088821;28;20052;-65
2021/04/18 10:46:02;;;;;;;7.88;5.70;;;13.50;87.80;;;;;;5094686;28;20036;-65
2021/04/18 10:48:28;;;;;;;7.97;5.03;;;13.60;85.60;;;;;;5089083;28;20056;-65
2021/04/18 10:50:54;;;;;;;7.97;5.40;;;13.70;85.20;;;;;;5104810;28;20065;-65
2021/04/18 10:53:20;;;;;;;10.10;5.57;;;13.70;84.10;;;;;;5105135;28;20048;-65
2021/04/18 10:55:46;;;;;;;7.13;5.18;;;13.80;85.40;;;;;;5105194;28;20100;-65
2021/04/18 10:58:14;;;;;;;8.50;5.25;;;13.90;85.30;;;;;;5105347;28;20056;-65
2021/04/18 11:00:41;;;;;;;8.20;5.97;;;13.90;84.70;;;;;;5105304;28;20055;-65
2021/04/18 11:03:07;;;;;;;7.78;5.20;;;14.00;86.50;;;;;;5105312;28;20108;-65
2021/04/18 11:05:33;;;;;;;8.80;4.95;;;14.10;87.20;;;;;;5105547;28;20044;-65
2021/04/18 11:07:59;;;;;;;7.03;5.47;;;14.20;86.00;;;;;;5106284;28;20071;-66
2021/04/18 11:10:25;;;;;;;7.93;4.15;;;14.30;82.60;;;;;;5105869;28;20088;-66
2021/04/18 11:12:51;;;;;;;5.93;4.05;;;14.30;81.70;;;;;;5105622;28;20040;-65
2021/04/18 11:15:17;;;;;;;7.88;4.78;;;14.40;81.70;;;;;;5105558;28;20045;-62
2021/04/18 11:17:42;;;;;;;7.07;4.05;;;14.50;80.30;;;;;;5104345;28;20442;-64
2021/04/18 11:20:11;;;;;;;8.70;3.92;;;14.50;80.90;;;;;;5103865;28;20089;-64
2021/04/18 11:22:39;;;;;;;7.25;4.53;;;14.50;82.00;;;;;;5103502;28;20044;-65
2021/04/18 11:25:09;;;;;;;7.88;3.70;;;14.70;79.30;;;;;;5103190;28;20147;-66
2021/04/18 11:27:36;;;;;;;5.47;3.65;;;14.70;78.90;;;;;;5103713;28;20048;-65
2021/04/18 11:30:05;;;;;;;6.00;3.80;;;14.80;78.40;;;;;;5105094;28;20496;-66
2021/04/18 11:32:32;;;;;;;5.22;3.47;;;14.90;78.20;;;;;;5104253;28;20055;-67
2021/04/18 11:34:58;;;;;;;9.65;3.70;;;14.90;78.40;;;;;;5104948;28;20051;-67
2021/04/18 11:37:23;;;;;;;6.50;3.83;;;14.90;77.50;;;;;;5101294;28;20131;-66
2021/04/18 11:39:49;;;;;;;6.45;4.20;;;15.00;76.70;;;;;;5105036;28;20044;-66
2021/04/18 11:42:15;;;;;;;7.50;4.03;;;15.10;75.50;;;;;;5105635;28;20044;-66
2021/04/18 11:44:41;;;;;;;6.05;4.18;;;15.20;77.00;;;;;;5092370;28;20044;-66
2021/04/18 11:47:07;;;;;;;8.00;4.13;;;15.20;76.20;;;;;;5084170;28;20044;-66
2021/04/18 11:49:32;;;;;;;7.13;4.20;;;15.20;77.30;;;;;;5105157;28;20054;-66
2021/04/18 11:51:58;;;;;;;7.03;4.03;;;15.30;78.20;;;;;;5104725;28;20099;-66
2021/04/18 11:54:24;;;;;;;5.72;3.90;;;15.30;79.30;;;;;;5104664;28;20044;-66
2021/04/18 11:56:50;;;;;;;8.05;4.47;;;15.50;76.70;;;;;;5109611;28;20093;-66
2021/04/18 11:59:16;;;;;;;7.20;3.53;;;15.50;77.10;;;;;;5108938;28;20044;-66
2021/04/18 12:01:41;;;;;;;6.30;3.60;;;15.50;75.30;;;;;;5109461;28;20056;-66
2021/04/18 12:04:08;;;;;;;8.40;4.88;;;15.50;78.10;;;;;;5108685;28;20043;-66
2021/04/18 12:06:34;;;;;;;7.13;4.03;;;15.50;78.90;;;;;;5108747;28;20400;-66
2021/04/18 12:09:00;;;;;;;6.50;3.80;;;15.60;77.60;;;;;;5108494;28;20071;-66
2021/04/18 12:11:26;;;;;;;5.93;3.70;;;15.70;76.90;;;;;;5108673;28;20488;-66
2021/04/18 12:13:52;;;;;;;5.15;3.63;;;15.80;75.00;;;;;;5108289;28;20047;-66
2021/04/18 12:16:17;;;;;;;8.25;3.75;;;15.70;76.60;;;;;;5108463;28;20051;-66
2021/04/18 12:18:44;;;;;;;6.43;4.25;;;15.80;75.40;;;;;;5108560;28;20066;-66
2021/04/18 12:21:10;;;;;;;6.13;3.60;;;15.70;75.40;;;;;;5108969;28;20044;-66
2021/04/18 12:23:36;;;;;;;8.52;4.35;;;15.70;76.40;;;;;;5087250;28;20108;-66
2021/04/18 12:26:03;;;;;;;6.35;4.10;;;15.70;75.70;;;;;;5106561;28;20048;-66
2021/04/18 12:28:30;;;;;;;6.38;3.88;;;15.80;76.60;;;;;;5109163;28;20170;-66
2021/04/18 12:30:56;;;;;;;7.82;4.35;;;15.90;75.20;;;;;;5109483;28;20466;-66
2021/04/18 12:33:22;;;;;;;8.27;4.82;;;15.90;78.00;;;;;;5108064;28;20056;-66
2021/04/18 12:35:48;;;;;;;6.28;4.07;;;16.00;76.70;;;;;;5108357;28;20040;-66
2021/04/18 12:38:14;;;;;;;7.28;4.07;;;16.00;75.60;;;;;;5107819;28;20119;-66
2021/04/18 12:40:41;;;;;;;9.80;4.22;;;16.20;74.70;;;;;;5108954;28;20489;-66
2021/04/18 12:43:07;;;;;;;6.18;3.78;;;16.20;76.80;;;;;;5108891;28;20051;-66
2021/04/18 12:45:33;;;;;;;6.80;4.35;;;16.30;75.80;;;;;;5107995;28;20044;-66